Racecast

Luchia Zuver

Cheyenne South (WY) · 12 · EASTWY D4A4A · Compare head to head

Athlete rating 114.7 2017 XC season
Best race 124.5 TF
Races 64
Seasons 5 2014 — 2018

RankedNation #26778·WY #65·WY D4A #47·EAST #22·Team #2 ?

Speed rating — all races

Cross Country

XC speed rating

2017 XC 113.4

Cheyenne South (WY) · Grade 12

Date Meet Event Result Place Rating Difficulty PR/SR Flags
2017-10-21 Sheridan VA Medical Center 5000m 21:57.6 58th · 2nd on team 115.6 +0.027 SR CSR RSR
2017-09-08 Kimball Golf course 5000m +0.049 ★CR CSR
2017-09-01 Monument Shadows Golf Course 5000m 23:42 22nd · 2nd on team 111.3 +0.062 SR CSR
2017-08-25 Beartrap Meadow Park 5000m 24:24.1 32nd · 2nd on team 113.3 +0.104 ★CR SR CSR RSR

2016 XC 115.4

Cheyenne South (WY) · Grade 11

Date Meet Event Result Place Rating Difficulty PR/SR Flags
2016-10-22 Sheridan VA Medical Center 5000m 21:19.8 49th · 1st on team 119.5 +0.027 ★PR ★CR SR CSR RSR
2016-09-17 Fort Collins High School 5000m 21:48 18th · 1st on team 116.4 +0.023 ★CR SR CSR RSR
2016-09-02 Monument Shadows Golf Course 5000m 23:33.2 40th · 1st on team 110.4 +0.062 ★CR SR CSR RSR

2015 XC 112.6

Cheyenne South (WY) · Grade 10

Date Meet Event Result Place Rating Difficulty PR/SR Flags
2015-10-24 Sheridan VA Medical Center 5000m 21:34.7 47th · 3rd on team 116.4 +0.027 PR CR SR CSR RSR
2015-10-09 Prairie View Golf Course 5000m 22:05.5 30th · 4th on team 114.7 +0.023 ★CR CSR
2015-10-02 Mead High School 5000m 22:20.3 12th · 3rd on team 111.5 +0.011 ★CR CSR
2015-09-25 North Lake Park 5000m 22:45 35th · 3rd on team 113.5 +0.041 ★CR CSR
2015-09-18 Fort Collins High School 5000m 21:54.9 36th · 4th on team 114.7 +0.023 PR CR SR CSR RSR
2015-09-04 Monument Shadows Golf Course 5000m 24:27 44th · 5th on team 108.7 +0.062 PR CR SR CSR RSR
2015-08-28 Beartrap Meadow Park 5000m 24:58.3 8th · 1st on team 108.6 +0.104 CR SR CSR RSR

2014 XC 99.2

Cheyenne South (WY) · Grade 9

Date Meet Event Result Place Rating Difficulty PR/SR Flags
2014-09-13 Sheridan VA Medical Center 5000m 25:21.8 53rd · 2nd on team 100.5 +0.027 CR CSR
2014-09-05 Gering 5000m 24:49 24th · 4th on team 101.0 +0.015 PR ★CR R SR CSR RSR
2014-08-30 University of Wyoming 5000m 28:08.2 38th · 6th on team 96.0 +0.093 PR ★CR R SR CSR RSR

Track & Field

TF speed rating

2018 TF 110.6

Cheyenne South (WY) · Grade 12

Date Meet Event Result Place Rating Difficulty PR/SR Flags
2018-05-11 WHSAA 4A East Regional 800m 2:41.6 13th · 1st on team 119.0 +0.010 SR RSR
2018-05-04 2018 Wiseman Invitational 800m 2:41.74 6th · 1st on team 116.0 -0.012 SR RSR
2018-04-28 Kelly Walsh Invitational 800m 2:51.13 22nd · 2nd on team 109.5 -0.012
2018-04-28 Casper Invite 800m 2:51.13 22nd · 2nd on team 108.4 -0.027
2018-04-12 Okie Blanchard Invitational 800m 2:52.64 13th · 1st on team 110.8 +0.006
2018-03-23 Runners Roost of Fort Collins Invitational 800m 2:48.72 26th · 1st on team 111.3 -0.012 SR
2018-03-17 Windsor Invitational 800m 2:50.75 36th · 2nd on team 110.8 -0.008 SR
2018-01-27 Wyoming Open 800m 2:59.58 15th · 2nd on team 108.3 -0.005 SR
2018-01-27 Wyoming Open 1600m 6:35.61 9th · 1st on team 109.8 -0.005
2018-01-20 Gillette Invitational 1600m 6:11.39 9th · 1st on team 113.7 -0.023 SR RSR
2018-01-13 Stadium Sports Grill HS Open 800m 3:10.85 36th · 5th on team 98.9 -0.023 SR RSR

2017 TF 117.7

Cheyenne South (WY) · Grade 11

Date Meet Event Result Place Rating Difficulty PR/SR Flags
2017-05-13 WHSAA 4A East Regional 800m 2:39.79 17th · 2nd on team 117.3 -0.012
2017-05-05 Wiseman Invite 800m 2:37.97 6th · 2nd on team 118.3 -0.012
2017-05-02 Central Freshmen/Sophomore 800m 2:36.31 3rd · 2nd on team 122.6 +0.010
2017-04-07 Okie Blanchard Invitational 1600m 6:01.55 11th · 1st on team 118.6 +0.006
2017-03-25 Runners Roost of Fort Collins Invitational 1600m 6:06.71 31st · 1st on team 114.7 -0.012
2017-03-03 Wyoming State Indoor Track Championships 800m 2:30.96 20th · 1st on team 124.5 -0.023 ★PR ★R SR RSR
2017-03-03 Wyoming State Indoor Track Championships 1600m 5:54.34 19th · 1st on team 118.8 -0.023 SR
2017-02-18 Simplot Games 1600m 5:55.77 137th · 1st on team 117.3 -0.023 SR
2017-02-10 Laramie-Shine Invitational 1600m 5:57.55 8th · 1st on team 121.1 -0.005 SR RSR
2017-02-10 Laramie-Shine Invitational 800m 2:40.42 3rd · 1st on team 120.8 -0.005 SR
2017-02-04 Kevin Salverson Invitational 800m 2:44.14 7th · 1st on team 116.7 +0.010 SR RSR
2017-02-04 Kevin Salverson Invitational 400m 1:13.55 7th · 2nd on team +0.010 ★PR SR
2017-01-21 Campbell County Indoor 800m 2:48.75 11th · 2nd on team 111.4 -0.023 SR RSR
2017-01-21 Campbell County Indoor 1600m 6:07.3 13th · 1st on team 114.6 -0.023 SR RSR
2017-01-14 Stadium Sports Grill HS Classic 1600m 6:18.91 16th · 1st on team 111.1 -0.023 SR RSR

2016 TF 117.7

Cheyenne South (WY) · Grade 10

Date Meet Event Result Place Rating Difficulty PR/SR Flags
2016-05-13 4A East Regional 800m 2:38.94 16th · 3rd on team 119.8 +0.006 PR SR
2016-05-06 Wiseman Invitational 1600m 5:56.11 4th · 1st on team 118.1 -0.012
2016-04-22 Douglas Track Invitational 1600m 6:07.77 2nd · 1st on team 115.6 -0.002
2016-04-08 Okie Blanch Invite 1600m 5:48.46 3rd · 1st on team 122.6 +0.006 ★PR R SR RSR
2016-04-08 Okie Blanch Invite 300mh 1:02.38 10th · 2nd on team +0.006
2016-04-02 Altitude Running Invitational 300mh 58.77 19th · 2nd on team -0.011 ★PR SR
2016-02-18 Simplot Games - Day 1 1600m 5:58.87 106th · 1st on team 116.3 -0.023 PR SR RSR
2016-01-23 Campbell County HS Indoor Invitational 1600m 6:11.05 23rd · 2nd on team 113.5 -0.023 SR RSR

2015 TF 112.4

Cheyenne South (WY) · Grade 9

Date Meet Event Result Place Rating Difficulty PR/SR Flags
2015-05-15 1A-2A-4A East Regional 1600m 6:09.66 18th · 4th on team 114.1 -0.017
2015-05-08 Wiseman Invitational 1600m 6:06.87 7th · 2nd on team 115.4 -0.012
2015-05-02 Kelly Walsh Invitational 3200m 14:06.32 5th · 2nd on team 108.0 -0.012 ★PR SR
2015-05-02 Kelly Walsh Invitational 1600m 6:04.56 17th · 3rd on team 116.1 -0.012 PR SR
2015-04-24 Pine Bluffs Invite 1600m 6:09.9 1st · 1st on team 115.9 +0.006
2015-04-24 Pine Bluffs Invite 800m 2:47.43 6th · 2nd on team 113.4 +0.006 PR SR
2015-04-18 Thornton HS Maxine Ehrman Invitational 1600m 6:14.89 21st · 3rd on team 113.2 -0.006
2015-04-10 Okie Blanchard Invite 1600m 6:05.44 1st · 1st on team 117.0 +0.006 PR R SR RSR
2015-04-10 Okie Blanchard Invite 800m 2:54.16 4th · 1st on team 108.8 +0.006 PR SR
2015-03-27 Natrona Invite 800m 2:56.62 18th · 4th on team 107.1 -0.003 PR SR
2015-03-27 Natrona Invite 1600m 6:19.02 14th · 2nd on team 112.7 -0.003
2015-03-06 WY State Indoor Track Championships 800m 2:57.52 66th · 4th on team 105.8 -0.023 PR R SR RSR
2015-03-06 WY State Indoor Track Championships 1600m 6:12.72 43rd · 4th on team 113.4 -0.023 PR R SR RSR